SWR1583 LSZH-LSGG
Flight info
| Callsign | SWR1583 |
|---|---|
| Flight time | 0h 33m |
| Altitude | 18000 |
| Route | VEBIT T50 ROTOS Z669 ULMES |
| Aircraft | A343/H-SDE2E3FGHIJ4J5M1RWXY/LB1D1 |
Departure
| Time | 2026-05-07 22:21 |
|---|---|
| Airport | Zürich Airport (LSZH) |
Arrival
| Time | 2026-05-07 22:55 |
|---|---|
| Airport | Geneva International Airport (LSGG) |
| Time | Latitude | Longitude | Altitude | Speed | Heading |
|---|---|---|---|---|---|
| 2026-05-07 22:02 | 47.46062 | 8.55434 | 1457 ft | 0 kts | 6° |
| 2026-05-07 22:10 | 47.46040 | 8.55430 | 1406 ft | 4 kts | 11° |
| 2026-05-07 22:10 | 47.46014 | 8.55421 | 1406 ft | 4 kts | 19° |
| 2026-05-07 22:10 | 47.45990 | 8.55405 | 1412 ft | 4 kts | 37° |
| 2026-05-07 22:10 | 47.45975 | 8.55378 | 1412 ft | 4 kts | 86° |
| 2026-05-07 22:11 | 47.45974 | 8.55371 | 1412 ft | 1 kts | 96° |
| 2026-05-07 22:13 | 47.45974 | 8.55373 | 1398 ft | 0 kts | 96° |
| 2026-05-07 22:13 | 47.45974 | 8.55380 | 1398 ft | 1 kts | 96° |
| 2026-05-07 22:14 | 47.45973 | 8.55393 | 1403 ft | 2 kts | 96° |
| 2026-05-07 22:14 | 47.45971 | 8.55413 | 1411 ft | 2 kts | 96° |
| 2026-05-07 22:14 | 47.45970 | 8.55440 | 1405 ft | 3 kts | 96° |
| 2026-05-07 22:14 | 47.45967 | 8.55475 | 1409 ft | 4 kts | 96° |
| 2026-05-07 22:15 | 47.45964 | 8.55517 | 1411 ft | 4 kts | 96° |
| 2026-05-07 22:15 | 47.45961 | 8.55565 | 1411 ft | 5 kts | 96° |
| 2026-05-07 22:15 | 47.45957 | 8.55620 | 1407 ft | 6 kts | 96° |
| 2026-05-07 22:15 | 47.45952 | 8.55681 | 1406 ft | 6 kts | 96° |
| 2026-05-07 22:16 | 47.45948 | 8.55747 | 1414 ft | 7 kts | 96° |
| 2026-05-07 22:16 | 47.45943 | 8.55819 | 1409 ft | 7 kts | 96° |
| 2026-05-07 22:16 | 47.45937 | 8.55897 | 1416 ft | 8 kts | 96° |
| 2026-05-07 22:16 | 47.45931 | 8.55979 | 1416 ft | 8 kts | 96° |
| 2026-05-07 22:17 | 47.45927 | 8.56035 | 1416 ft | 8 kts | 96° |
| 2026-05-07 22:17 | 47.45921 | 8.56125 | 1415 ft | 9 kts | 96° |
| 2026-05-07 22:17 | 47.45912 | 8.56247 | 1416 ft | 8 kts | 96° |
| 2026-05-07 22:17 | 47.45907 | 8.56303 | 1417 ft | 8 kts | 96° |
| 2026-05-07 22:18 | 47.45899 | 8.56387 | 1419 ft | 8 kts | 106° |
| 2026-05-07 22:18 | 47.45843 | 8.56492 | 1424 ft | 6 kts | 135° |
| 2026-05-07 22:18 | 47.45812 | 8.56545 | 1426 ft | 8 kts | 121° |
| 2026-05-07 22:19 | 47.45796 | 8.56633 | 1426 ft | 10 kts | 99° |
| 2026-05-07 22:19 | 47.45788 | 8.56737 | 1425 ft | 11 kts | 95° |
| 2026-05-07 22:19 | 47.45780 | 8.56848 | 1426 ft | 11 kts | 96° |
| 2026-05-07 22:19 | 47.45771 | 8.56956 | 1428 ft | 11 kts | 102° |
| 2026-05-07 22:20 | 47.45725 | 8.57025 | 1429 ft | 10 kts | 165° |
| 2026-05-07 22:20 | 47.45671 | 8.56981 | 1428 ft | 10 kts | 246° |
| 2026-05-07 22:20 | 47.45670 | 8.56906 | 1427 ft | 0 kts | 273° |
| 2026-05-07 22:20 | 47.45682 | 8.56687 | 1423 ft | 56 kts | 276° |
| 2026-05-07 22:21 | 47.45747 | 8.55791 | 1418 ft | 118 kts | 276° |
| 2026-05-07 22:21 | 47.45839 | 8.54340 | 1545 ft | 154 kts | 276° |
| 2026-05-07 22:21 | 47.45925 | 8.52775 | 2275 ft | 155 kts | 278° |
| 2026-05-07 22:21 | 47.46055 | 8.51106 | 2767 ft | 179 kts | 279° |
| 2026-05-07 22:22 | 47.46084 | 8.49098 | 3105 ft | 209 kts | 259° |
| 2026-05-07 22:22 | 47.45390 | 8.47055 | 3685 ft | 239 kts | 236° |
| 2026-05-07 22:22 | 47.44349 | 8.45034 | 4692 ft | 252 kts | 233° |
| 2026-05-07 22:22 | 47.43291 | 8.43056 | 5889 ft | 256 kts | 232° |
| 2026-05-07 22:23 | 47.42201 | 8.40963 | 7019 ft | 257 kts | 234° |
| 2026-05-07 22:23 | 47.41114 | 8.38833 | 8053 ft | 262 kts | 234° |
| 2026-05-07 22:23 | 47.40012 | 8.36662 | 9086 ft | 265 kts | 234° |
| 2026-05-07 22:23 | 47.38946 | 8.34428 | 10098 ft | 268 kts | 239° |
| 2026-05-07 22:24 | 47.38008 | 8.31968 | 10770 ft | 285 kts | 242° |
| 2026-05-07 22:24 | 47.37051 | 8.29275 | 11246 ft | 308 kts | 242° |
| 2026-05-07 22:24 | 47.36040 | 8.26412 | 11770 ft | 323 kts | 242° |
| 2026-05-07 22:24 | 47.34988 | 8.23440 | 12530 ft | 330 kts | 242° |
| 2026-05-07 22:25 | 47.33919 | 8.20417 | 13359 ft | 335 kts | 242° |
| 2026-05-07 22:25 | 47.32829 | 8.17354 | 14149 ft | 340 kts | 242° |
| 2026-05-07 22:25 | 47.31741 | 8.14300 | 14876 ft | 344 kts | 242° |
| 2026-05-07 22:25 | 47.30624 | 8.11151 | 15595 ft | 349 kts | 242° |
| 2026-05-07 22:26 | 47.29489 | 8.07959 | 16328 ft | 354 kts | 242° |
| 2026-05-07 22:26 | 47.28339 | 8.04735 | 17080 ft | 358 kts | 242° |
| 2026-05-07 22:26 | 47.27185 | 8.01481 | 17718 ft | 363 kts | 243° |
| 2026-05-07 22:26 | 47.26114 | 7.98153 | 17986 ft | 366 kts | 246° |
| 2026-05-07 22:27 | 47.25097 | 7.94657 | 18010 ft | 373 kts | 248° |
| 2026-05-07 22:27 | 47.24119 | 7.91109 | 18012 ft | 375 kts | 248° |
| 2026-05-07 22:27 | 47.23154 | 7.87548 | 18012 ft | 375 kts | 248° |
| 2026-05-07 22:27 | 47.22184 | 7.83986 | 18011 ft | 375 kts | 248° |
| 2026-05-07 22:28 | 47.21207 | 7.80433 | 18016 ft | 375 kts | 248° |
| 2026-05-07 22:28 | 47.20217 | 7.76875 | 18010 ft | 375 kts | 248° |
| 2026-05-07 22:28 | 47.19119 | 7.73404 | 18013 ft | 375 kts | 240° |
| 2026-05-07 22:28 | 47.17689 | 7.70192 | 18016 ft | 375 kts | 235° |
| 2026-05-07 22:29 | 47.16147 | 7.67102 | 18017 ft | 375 kts | 233° |
| 2026-05-07 22:29 | 47.14543 | 7.64074 | 18011 ft | 375 kts | 232° |
| 2026-05-07 22:29 | 47.12913 | 7.61087 | 18006 ft | 375 kts | 231° |
| 2026-05-07 22:29 | 47.11272 | 7.58108 | 18010 ft | 375 kts | 231° |
| 2026-05-07 22:30 | 47.11054 | 7.57711 | 18011 ft | 375 kts | 231° |
| 2026-05-07 22:30 | 47.10085 | 7.55951 | 18011 ft | 375 kts | 232° |
| 2026-05-07 22:30 | 47.08449 | 7.52970 | 18010 ft | 375 kts | 232° |
| 2026-05-07 22:30 | 47.06820 | 7.49988 | 17998 ft | 375 kts | 232° |
| 2026-05-07 22:31 | 47.05193 | 7.46999 | 17995 ft | 375 kts | 232° |
| 2026-05-07 22:31 | 47.03567 | 7.44010 | 17996 ft | 375 kts | 232° |
| 2026-05-07 22:31 | 47.01943 | 7.41022 | 17993 ft | 375 kts | 232° |
| 2026-05-07 22:31 | 47.00314 | 7.38039 | 18003 ft | 375 kts | 231° |
| 2026-05-07 22:32 | 46.98683 | 7.35065 | 17997 ft | 374 kts | 231° |
| 2026-05-07 22:32 | 46.97055 | 7.32098 | 17997 ft | 374 kts | 231° |
| 2026-05-07 22:32 | 46.95427 | 7.29133 | 17997 ft | 374 kts | 231° |
| 2026-05-07 22:32 | 46.93800 | 7.26159 | 17993 ft | 374 kts | 232° |
| 2026-05-07 22:33 | 46.92177 | 7.23198 | 17996 ft | 373 kts | 232° |
| 2026-05-07 22:33 | 46.90550 | 7.20236 | 18000 ft | 374 kts | 232° |
| 2026-05-07 22:33 | 46.88923 | 7.17277 | 17961 ft | 374 kts | 232° |
| 2026-05-07 22:33 | 46.87307 | 7.14338 | 17712 ft | 367 kts | 232° |
| 2026-05-07 22:34 | 46.85735 | 7.11483 | 17449 ft | 361 kts | 231° |
| 2026-05-07 22:34 | 46.84150 | 7.08608 | 17187 ft | 360 kts | 231° |
| 2026-05-07 22:34 | 46.82582 | 7.05766 | 16948 ft | 359 kts | 231° |
| 2026-05-07 22:34 | 46.81015 | 7.02928 | 16681 ft | 358 kts | 231° |
| 2026-05-07 22:35 | 46.79457 | 7.00106 | 16409 ft | 357 kts | 231° |
| 2026-05-07 22:35 | 46.77904 | 6.97293 | 16164 ft | 355 kts | 231° |
| 2026-05-07 22:35 | 46.76353 | 6.94493 | 15911 ft | 354 kts | 231° |
| 2026-05-07 22:35 | 46.74807 | 6.91707 | 15657 ft | 353 kts | 232° |
| 2026-05-07 22:36 | 46.73269 | 6.88935 | 15408 ft | 351 kts | 232° |
| 2026-05-07 22:36 | 46.71738 | 6.86178 | 15160 ft | 349 kts | 231° |
| 2026-05-07 22:36 | 46.70213 | 6.83433 | 14913 ft | 348 kts | 231° |
| 2026-05-07 22:36 | 46.68690 | 6.80696 | 14657 ft | 347 kts | 231° |
| 2026-05-07 22:37 | 46.67171 | 6.77972 | 14422 ft | 346 kts | 231° |
| 2026-05-07 22:37 | 46.65505 | 6.75463 | 14176 ft | 345 kts | 220° |
| 2026-05-07 22:37 | 46.63496 | 6.73554 | 13947 ft | 345 kts | 211° |
| 2026-05-07 22:37 | 46.61388 | 6.71884 | 13688 ft | 344 kts | 209° |
| 2026-05-07 22:38 | 46.59282 | 6.70244 | 13420 ft | 343 kts | 209° |
| 2026-05-07 22:38 | 46.57210 | 6.68625 | 13151 ft | 342 kts | 209° |
| 2026-05-07 22:38 | 46.55139 | 6.67003 | 12974 ft | 332 kts | 209° |
| 2026-05-07 22:38 | 46.53117 | 6.65417 | 12850 ft | 320 kts | 210° |
| 2026-05-07 22:39 | 46.51218 | 6.63927 | 12738 ft | 310 kts | 210° |
| 2026-05-07 22:39 | 46.49323 | 6.62441 | 12617 ft | 300 kts | 210° |
| 2026-05-07 22:39 | 46.47508 | 6.61016 | 12487 ft | 296 kts | 210° |
| 2026-05-07 22:39 | 46.45686 | 6.59585 | 12364 ft | 299 kts | 210° |
| 2026-05-07 22:40 | 46.43890 | 6.58176 | 12304 ft | 293 kts | 209° |
| 2026-05-07 22:40 | 46.42101 | 6.56775 | 12170 ft | 285 kts | 209° |
| 2026-05-07 22:40 | 46.40413 | 6.55422 | 12047 ft | 277 kts | 212° |
| 2026-05-07 22:40 | 46.38925 | 6.53734 | 11926 ft | 269 kts | 224° |
| 2026-05-07 22:41 | 46.37621 | 6.51846 | 11798 ft | 262 kts | 226° |
| 2026-05-07 22:41 | 46.36369 | 6.49975 | 11703 ft | 256 kts | 226° |
| 2026-05-07 22:41 | 46.35139 | 6.48141 | 11538 ft | 252 kts | 226° |
| 2026-05-07 22:41 | 46.33919 | 6.46328 | 11329 ft | 250 kts | 226° |
| 2026-05-07 22:42 | 46.32707 | 6.44529 | 11128 ft | 249 kts | 225° |
| 2026-05-07 22:42 | 46.31498 | 6.42741 | 10917 ft | 248 kts | 225° |
| 2026-05-07 22:42 | 46.30297 | 6.40966 | 10702 ft | 247 kts | 225° |
| 2026-05-07 22:42 | 46.29096 | 6.39192 | 10501 ft | 246 kts | 225° |
| 2026-05-07 22:43 | 46.27899 | 6.37426 | 10279 ft | 245 kts | 225° |
| 2026-05-07 22:43 | 46.26705 | 6.35665 | 10058 ft | 245 kts | 225° |
| 2026-05-07 22:43 | 46.25517 | 6.33914 | 9862 ft | 244 kts | 224° |
| 2026-05-07 22:43 | 46.24320 | 6.32154 | 9615 ft | 253 kts | 224° |
| 2026-05-07 22:44 | 46.23021 | 6.30247 | 9527 ft | 275 kts | 224° |
| 2026-05-07 22:44 | 46.21675 | 6.28273 | 9453 ft | 275 kts | 225° |
| 2026-05-07 22:44 | 46.20337 | 6.26306 | 9218 ft | 274 kts | 225° |
| 2026-05-07 22:44 | 46.18995 | 6.24334 | 8952 ft | 277 kts | 225° |
| 2026-05-07 22:45 | 46.17654 | 6.22346 | 8716 ft | 275 kts | 225° |
| 2026-05-07 22:45 | 46.16328 | 6.20370 | 8462 ft | 273 kts | 225° |
| 2026-05-07 22:45 | 46.15002 | 6.18399 | 8222 ft | 273 kts | 225° |
| 2026-05-07 22:45 | 46.13686 | 6.16446 | 7982 ft | 273 kts | 225° |
| 2026-05-07 22:46 | 46.12363 | 6.14486 | 7760 ft | 272 kts | 225° |
| 2026-05-07 22:46 | 46.11037 | 6.12520 | 7500 ft | 274 kts | 225° |
| 2026-05-07 22:46 | 46.09716 | 6.10563 | 7278 ft | 271 kts | 225° |
| 2026-05-07 22:46 | 46.08393 | 6.08621 | 7037 ft | 272 kts | 225° |
| 2026-05-07 22:47 | 46.07051 | 6.06687 | 6807 ft | 273 kts | 224° |
| 2026-05-07 22:47 | 46.05712 | 6.04762 | 6568 ft | 272 kts | 225° |
| 2026-05-07 22:47 | 46.04369 | 6.02829 | 6320 ft | 274 kts | 225° |
| 2026-05-07 22:47 | 46.03023 | 6.00892 | 6199 ft | 273 kts | 225° |
| 2026-05-07 22:48 | 46.01701 | 5.98991 | 6096 ft | 264 kts | 225° |
| 2026-05-07 22:48 | 46.00424 | 5.97154 | 5972 ft | 255 kts | 226° |
| 2026-05-07 22:48 | 45.99404 | 5.95163 | 5925 ft | 242 kts | 248° |
| 2026-05-07 22:48 | 45.99130 | 5.92826 | 5910 ft | 238 kts | 275° |
| 2026-05-07 22:49 | 45.99674 | 5.90601 | 5922 ft | 239 kts | 303° |
| 2026-05-07 22:49 | 46.00757 | 5.88788 | 5917 ft | 240 kts | 315° |
| 2026-05-07 22:49 | 46.01963 | 5.87120 | 5913 ft | 241 kts | 317° |
| 2026-05-07 22:49 | 46.03188 | 5.85474 | 5918 ft | 240 kts | 320° |
| 2026-05-07 22:50 | 46.04661 | 5.84580 | 5923 ft | 228 kts | 359° |
| 2026-05-07 22:50 | 46.06140 | 5.85189 | 5933 ft | 224 kts | 34° |
| 2026-05-07 22:50 | 46.07319 | 5.86670 | 5858 ft | 227 kts | 47° |
| 2026-05-07 22:50 | 46.08388 | 5.88350 | 5566 ft | 229 kts | 46° |
| 2026-05-07 22:51 | 46.09517 | 5.89996 | 5231 ft | 233 kts | 44° |
| 2026-05-07 22:51 | 46.10678 | 5.91663 | 4852 ft | 238 kts | 44° |
| 2026-05-07 22:51 | 46.11845 | 5.93376 | 4493 ft | 241 kts | 44° |
| 2026-05-07 22:51 | 46.13022 | 5.95102 | 4156 ft | 242 kts | 43° |
| 2026-05-07 22:52 | 46.14189 | 5.96806 | 3837 ft | 234 kts | 44° |
| 2026-05-07 22:52 | 46.15299 | 5.98431 | 3556 ft | 221 kts | 44° |
| 2026-05-07 22:52 | 46.16331 | 5.99942 | 3255 ft | 201 kts | 43° |
| 2026-05-07 22:52 | 46.17260 | 6.01303 | 3045 ft | 179 kts | 43° |
| 2026-05-07 22:53 | 46.18098 | 6.02529 | 2792 ft | 165 kts | 43° |
| 2026-05-07 22:53 | 46.18872 | 6.03663 | 2550 ft | 153 kts | 45° |
| 2026-05-07 22:53 | 46.19596 | 6.04727 | 2296 ft | 145 kts | 45° |
| 2026-05-07 22:53 | 46.20268 | 6.05724 | 2154 ft | 135 kts | 46° |
| 2026-05-07 22:54 | 46.20907 | 6.06664 | 1971 ft | 132 kts | 45° |
| 2026-05-07 22:54 | 46.21559 | 6.07606 | 1799 ft | 134 kts | 43° |
| 2026-05-07 22:54 | 46.22213 | 6.08547 | 1635 ft | 129 kts | 43° |
| 2026-05-07 22:54 | 46.22840 | 6.09466 | 1453 ft | 127 kts | 45° |
| 2026-05-07 22:55 | 46.23404 | 6.10299 | 1408 ft | 94 kts | 46° |
| 2026-05-07 22:55 | 46.23732 | 6.10786 | 1382 ft | 42 kts | 46° |
| 2026-05-07 22:55 | 46.23894 | 6.11026 | 1380 ft | 32 kts | 45° |
| 2026-05-07 22:55 | 46.24049 | 6.11253 | 1377 ft | 32 kts | 45° |
| 2026-05-07 22:56 | 46.24205 | 6.11484 | 1375 ft | 32 kts | 47° |
| 2026-05-07 22:56 | 46.24308 | 6.11716 | 1372 ft | 25 kts | 68° |
| 2026-05-07 22:56 | 46.24336 | 6.11890 | 1370 ft | 16 kts | 98° |
| 2026-05-07 22:56 | 46.24272 | 6.11914 | 1368 ft | 11 kts | 217° |
| 2026-05-07 22:57 | 46.24215 | 6.11832 | 1367 ft | 12 kts | 225° |
| 2026-05-07 22:57 | 46.24159 | 6.11746 | 1369 ft | 12 kts | 226° |
| 2026-05-07 22:57 | 46.24103 | 6.11665 | 1371 ft | 11 kts | 226° |
| 2026-05-07 22:57 | 46.24051 | 6.11588 | 1371 ft | 11 kts | 225° |
| 2026-05-07 22:58 | 46.24000 | 6.11513 | 1372 ft | 10 kts | 225° |
| 2026-05-07 22:58 | 46.23951 | 6.11441 | 1374 ft | 10 kts | 225° |
| 2026-05-07 22:58 | 46.23904 | 6.11372 | 1376 ft | 10 kts | 226° |
| 2026-05-07 22:58 | 46.23858 | 6.11303 | 1377 ft | 9 kts | 225° |
| 2026-05-07 22:59 | 46.23811 | 6.11235 | 1378 ft | 10 kts | 225° |
| 2026-05-07 22:59 | 46.23760 | 6.11161 | 1381 ft | 10 kts | 225° |
| 2026-05-07 22:59 | 46.23724 | 6.11107 | 1385 ft | 5 kts | 225° |
| 2026-05-07 22:59 | 46.23711 | 6.11089 | 1385 ft | 2 kts | 224° |
| 2026-05-07 23:00 | 46.23704 | 6.11082 | 1403 ft | 1 kts | 214° |
| 2026-05-07 23:00 | 46.23696 | 6.11080 | 1401 ft | 2 kts | 194° |
| 2026-05-07 23:00 | 46.23665 | 6.11091 | 1403 ft | 8 kts | 159° |
| 2026-05-07 23:00 | 46.23623 | 6.11135 | 1407 ft | 7 kts | 139° |
| 2026-05-07 23:01 | 46.23588 | 6.11157 | 1405 ft | 5 kts | 178° |
| 2026-05-07 23:01 | 46.23558 | 6.11135 | 1405 ft | 5 kts | 220° |
| 2026-05-07 23:01 | 46.23529 | 6.11128 | 1402 ft | 4 kts | 172° |
| 2026-05-07 23:01 | 46.23502 | 6.11153 | 1405 ft | 6 kts | 140° |
| 2026-05-07 23:02 | 46.23480 | 6.11183 | 1406 ft | 4 kts | 136° |
| 2026-05-07 23:02 | 46.23478 | 6.11186 | 1406 ft | 0 kts | 136° |